createdAt,value
2019-02-14T00:00:11.814Z,102140.44
2019-02-14T00:03:15.462Z,102134.70
2019-02-14T00:06:18.967Z,102124.98
2019-02-14T00:09:23.555Z,102124.53
2019-02-14T00:12:27.024Z,102124.59
2019-02-14T00:15:30.499Z,102123.71
2019-02-14T00:18:33.985Z,102124.22
2019-02-14T00:21:37.498Z,102124.75
2019-02-14T00:24:42.009Z,102122.50
2019-02-14T00:27:45.517Z,102125.63
2019-02-14T00:30:49.023Z,102136.69
2019-02-14T00:33:52.678Z,102134.97
2019-02-14T00:36:56.263Z,102134.97
2019-02-14T00:39:59.750Z,102133.64
2019-02-14T00:43:05.284Z,102144.69
2019-02-14T00:46:08.785Z,102135.92
2019-02-14T00:49:12.270Z,102145.68
2019-02-14T00:52:15.784Z,102146.47
2019-02-14T00:55:19.278Z,102146.47
2019-02-14T00:58:22.834Z,102154.02
2019-02-14T01:01:26.503Z,102161.97
2019-02-14T01:04:29.990Z,102158.93
2019-02-14T01:07:33.504Z,102160.26
2019-02-14T01:10:38.022Z,102147.39
2019-02-14T01:13:41.629Z,102151.38
2019-02-14T01:16:45.233Z,102148.72
2019-02-14T01:19:48.711Z,102152.64
2019-02-14T01:22:52.233Z,102156.17
2019-02-14T01:25:55.721Z,102155.85
2019-02-14T01:28:59.223Z,102153.62
2019-02-14T01:32:02.737Z,102159.83
2019-02-14T01:35:06.271Z,102157.17
2019-02-14T01:38:10.867Z,102160.26
2019-02-14T01:41:14.461Z,102161.64
2019-02-14T01:44:17.956Z,102162.08
2019-02-14T01:47:21.465Z,102159.83
2019-02-14T01:50:24.962Z,102154.19
2019-02-14T01:53:29.478Z,102154.62
2019-02-14T01:56:32.982Z,102156.39
2019-02-14T01:59:36.514Z,102154.67
2019-02-14T02:02:39.988Z,102145.79
2019-02-14T02:05:50.754Z,102144.07
2019-02-14T02:08:50.908Z,102144.07
2019-02-14T02:11:55.407Z,102137.89
2019-02-14T02:14:58.923Z,102148.95
2019-02-14T02:18:02.418Z,102148.55
2019-02-14T02:21:06.942Z,102146.72
2019-02-14T02:24:11.466Z,102152.02
2019-02-14T02:27:14.955Z,102157.32
2019-02-14T02:30:18.454Z,102160.87
2019-02-14T02:33:21.972Z,102160.81
2019-02-14T02:36:25.474Z,102154.24
2019-02-14T02:39:29.085Z,102159.55
2019-02-14T02:42:32.678Z,102158.22
2019-02-14T02:45:36.177Z,102159.15
2019-02-14T02:48:39.777Z,102150.70
2019-02-14T02:51:44.389Z,102154.24
2019-02-14T02:54:48.995Z,102170.62
2019-02-14T02:57:52.428Z,102176.77
2019-02-14T03:00:57.977Z,102175.98
2019-02-14T03:04:01.479Z,102175.44
2019-02-14T03:07:04.997Z,102177.70
2019-02-14T03:10:10.124Z,102186.98
2019-02-14T03:13:13.615Z,102182.13
2019-02-14T03:16:17.124Z,102183.93
2019-02-14T03:19:20.607Z,102180.02
2019-02-14T03:22:26.157Z,102186.58
2019-02-14T03:25:29.666Z,102188.80
2019-02-14T03:28:33.182Z,102195.42
2019-02-14T03:31:37.688Z,102199.89
2019-02-14T03:34:41.219Z,102196.36
2019-02-14T03:37:44.688Z,102188.41
2019-02-14T03:40:48.189Z,102191.94
2019-02-14T03:43:51.721Z,102200.33
2019-02-14T03:46:55.187Z,102198.22
2019-02-14T03:49:59.747Z,102205.19
2019-02-14T03:53:03.218Z,102197.29
2019-02-14T03:56:06.719Z,102204.31
2019-02-14T03:59:10.228Z,102192.92
2019-02-14T04:02:13.737Z,102194.64
2019-02-14T04:05:17.227Z,102187.62
2019-02-14T04:08:21.738Z,102187.53
2019-02-14T04:11:26.287Z,102184.88
2019-02-14T04:14:29.800Z,102188.02
2019-02-14T04:17:33.607Z,102186.69
2019-02-14T04:20:37.181Z,102188.41
2019-02-14T04:23:40.762Z,102188.41
2019-02-14T04:26:44.389Z,102186.63
2019-02-14T04:29:47.913Z,102180.45
2019-02-14T04:32:52.435Z,102178.34
2019-02-14T04:35:55.966Z,102184.88
2019-02-14T04:39:00.539Z,102175.69
2019-02-14T04:42:05.176Z,102177.02
2019-02-14T04:45:08.714Z,102183.64
2019-02-14T04:48:12.178Z,102179.20
2019-02-14T04:51:15.684Z,102173.46
2019-02-14T04:54:19.260Z,102162.91
2019-02-14T04:57:22.874Z,102156.69
2019-02-14T05:00:26.387Z,102161.98
2019-02-14T05:03:29.894Z,102157.16
2019-02-14T05:06:33.376Z,102153.19
2019-02-14T05:09:37.903Z,102153.64
2019-02-14T05:12:41.418Z,102157.62
2019-02-14T05:15:45.170Z,102158.94
2019-02-14T05:18:48.825Z,102165.56
2019-02-14T05:21:53.345Z,102167.28
2019-02-14T05:24:57.882Z,102164.23
2019-02-14T05:28:01.395Z,102169.53
2019-02-14T05:31:04.987Z,102178.37
2019-02-14T05:34:08.587Z,102175.28
2019-02-14T05:37:12.095Z,102178.81
2019-02-14T05:40:15.584Z,102180.14
2019-02-14T05:43:19.087Z,102185.88
2019-02-14T05:46:22.579Z,102192.06
2019-02-14T05:49:26.091Z,102192.94
2019-02-14T05:52:30.621Z,102187.21
2019-02-14T05:55:34.206Z,102190.28
2019-02-14T05:58:37.676Z,102197.36
2019-02-14T06:01:41.721Z,102204.92
2019-02-14T06:04:45.218Z,102210.61
2019-02-14T06:07:48.779Z,102201.34
2019-02-14T06:10:52.422Z,102196.48
2019-02-14T06:13:55.991Z,102202.66
2019-02-14T06:16:59.825Z,102194.71
2019-02-14T06:20:04.461Z,102197.36
2019-02-14T06:23:09.105Z,102211.06
2019-02-14T06:26:14.636Z,102211.54
2019-02-14T06:29:18.151Z,102211.54
2019-02-14T06:32:21.726Z,102216.89
2019-02-14T06:35:25.371Z,102220.81
2019-02-14T06:38:28.882Z,102225.23
2019-02-14T06:41:33.382Z,102234.52
2019-02-14T06:44:36.923Z,102252.12
2019-02-14T06:47:40.409Z,102261.89
2019-02-14T06:50:43.876Z,102256.11
2019-02-14T06:53:47.386Z,102253.94
2019-02-14T06:56:50.890Z,102272.06
2019-02-14T06:59:54.384Z,102264.11
2019-02-14T07:02:57.898Z,102269.01
2019-02-14T07:06:01.379Z,102280.44
2019-02-14T07:09:05.799Z,102284.86
2019-02-14T07:12:09.406Z,102273.38
2019-02-14T07:15:14.042Z,102276.96
2019-02-14T07:18:17.762Z,102272.98
2019-02-14T07:21:21.813Z,102281.33
2019-02-14T07:24:27.509Z,102272.48
2019-02-14T07:27:31.111Z,102264.53
2019-02-14T07:30:34.762Z,102276.03
2019-02-14T07:33:38.248Z,102292.36
2019-02-14T07:36:42.736Z,102282.66
2019-02-14T07:39:47.271Z,102294.58
2019-02-14T07:42:51.809Z,102289.28
2019-02-14T07:45:55.295Z,102306.05
2019-02-14T07:48:58.810Z,102308.27
2019-02-14T07:52:02.295Z,102320.23
2019-02-14T07:55:07.617Z,102322.41
2019-02-14T07:58:12.187Z,102307.83
2019-02-14T08:01:16.700Z,102301.69
2019-02-14T08:04:21.230Z,102297.17
2019-02-14T08:07:24.716Z,102294.13
2019-02-14T08:10:28.279Z,102293.69
2019-02-14T08:13:31.915Z,102299.38
2019-02-14T08:16:36.484Z,102310.70
2019-02-14T08:19:40.966Z,102320.70
2019-02-14T08:22:44.461Z,102326.41
2019-02-14T08:25:48.129Z,102319.88
2019-02-14T08:28:51.763Z,102325.47
2019-02-14T08:31:55.373Z,102324.92
2019-02-14T08:34:59.914Z,102332.30
2019-02-14T08:38:06.163Z,102329.25
2019-02-14T08:41:09.767Z,102322.17
2019-02-14T08:44:14.295Z,102318.20
2019-02-14T08:47:17.838Z,102324.67
2019-02-14T08:50:21.412Z,102324.67
2019-02-14T08:53:26.022Z,102332.97
2019-02-14T08:56:29.525Z,102351.87
2019-02-14T08:59:33.032Z,102357.12
2019-02-14T09:02:37.558Z,102350.84
2019-02-14T09:05:42.077Z,102341.06
2019-02-14T09:08:46.680Z,102348.08
2019-02-14T09:11:50.422Z,102340.08
2019-02-14T09:14:54.015Z,102337.38
2019-02-14T09:17:57.514Z,102323.56
2019-02-14T09:21:01.015Z,102313.80
2019-02-14T09:24:04.938Z,102306.67
2019-02-14T09:27:08.539Z,102312.26
2019-02-14T09:30:12.192Z,102307.89
2019-02-14T09:33:16.753Z,102302.48
2019-02-14T09:36:20.373Z,102298.02
2019-02-14T09:39:23.924Z,102302.77
2019-02-14T09:42:29.281Z,102311.51
2019-02-14T09:45:32.940Z,102303.98
2019-02-14T09:48:39.538Z,102302.52
2019-02-14T09:51:43.002Z,102301.19
2019-02-14T09:54:46.487Z,102294.98
2019-02-14T09:57:51.033Z,102297.20
2019-02-14T10:00:54.514Z,102296.30
2019-02-14T10:03:58.153Z,102292.33
2019-02-14T10:07:02.863Z,102285.64
2019-02-14T10:10:07.891Z,102282.94
2019-02-14T10:13:11.382Z,102272.72
2019-02-14T10:16:14.911Z,102273.11
2019-02-14T10:19:18.371Z,102263.83
2019-02-14T10:22:21.903Z,102272.18
2019-02-14T10:25:25.383Z,102270.85
2019-02-14T10:28:29.005Z,102269.02
2019-02-14T10:31:33.631Z,102268.91
2019-02-14T10:34:37.131Z,102267.05
2019-02-14T10:37:40.662Z,102253.87
2019-02-14T10:40:44.108Z,102252.38
2019-02-14T10:43:49.047Z,102243.08
2019-02-14T10:46:52.756Z,102249.66
2019-02-14T10:49:56.249Z,102249.60
2019-02-14T10:52:59.778Z,102257.90
2019-02-14T10:56:03.301Z,102257.45
2019-02-14T10:59:07.030Z,102257.84
2019-02-14T11:02:10.484Z,102264.91
2019-02-14T11:05:14.895Z,102267.55
2019-02-14T11:08:18.519Z,102265.58
2019-02-14T11:11:23.042Z,102266.39
2019-02-14T11:14:29.264Z,102268.50
2019-02-14T11:17:31.873Z,102286.58
2019-02-14T11:20:35.382Z,102307.69
2019-02-14T11:23:41.091Z,102307.69
2019-02-14T11:26:53.195Z,102303.17
2019-02-14T11:29:56.732Z,102284.08
2019-02-14T11:33:03.585Z,102269.48
2019-02-14T11:36:07.276Z,102263.67
2019-02-14T11:39:10.938Z,102262.25
2019-02-14T11:42:14.434Z,102263.58
2019-02-14T11:48:20.822Z,102243.48
2019-02-14T11:51:24.327Z,102247.80
2019-02-14T11:54:27.883Z,102242.50
2019-02-14T11:57:31.525Z,102239.78
2019-02-14T12:00:37.067Z,102237.94
2019-02-14T12:03:40.677Z,102230.80
2019-02-14T12:06:44.427Z,102225.33
2019-02-14T12:09:48.061Z,102216.03
2019-02-14T12:12:52.783Z,102200.53
2019-02-14T12:15:56.419Z,102202.31
2019-02-14T12:19:06.022Z,102200.53
2019-02-14T12:22:11.663Z,102197.75
2019-02-14T12:25:15.533Z,102197.14
2019-02-14T12:28:20.044Z,102196.56
2019-02-14T12:31:23.564Z,102193.91
2019-02-14T12:34:27.059Z,102187.54
2019-02-14T12:37:30.573Z,102181.68
2019-02-14T12:40:35.080Z,102179.02
2019-02-14T12:43:38.594Z,102176.24
2019-02-14T12:46:42.128Z,102175.34
2019-02-14T12:49:45.775Z,102173.85
2019-02-14T12:52:51.702Z,102169.38
2019-02-14T12:55:56.256Z,102159.57
2019-02-14T12:59:00.777Z,102162.06
2019-02-14T13:02:06.331Z,102165.20
2019-02-14T13:05:09.889Z,102155.84
2019-02-14T13:08:13.346Z,102162.36
2019-02-14T13:11:16.842Z,102167.12
2019-02-14T13:14:20.385Z,102166.22
2019-02-14T13:17:24.890Z,102165.21
2019-02-14T13:20:36.819Z,102171.37
2019-02-14T13:23:40.493Z,102164.20
2019-02-14T13:26:43.972Z,102161.87
2019-02-14T13:29:47.479Z,102159.70
2019-02-14T13:32:53.059Z,102171.11
2019-02-14T13:35:57.619Z,102169.33
2019-02-14T13:39:01.269Z,102161.29
2019-02-14T13:42:09.863Z,102155.84
2019-02-14T13:45:15.662Z,102158.50
2019-02-14T13:48:19.118Z,102158.83
2019-02-14T13:51:22.654Z,102158.34
2019-02-14T13:54:27.156Z,102145.92
2019-02-14T13:57:30.749Z,102152.44
2019-02-14T14:00:35.647Z,102150.66
2019-02-14T14:03:39.439Z,102150.66
2019-02-14T14:06:44.048Z,102146.11
2019-02-14T14:09:47.804Z,102138.14
2019-02-14T14:12:53.517Z,102140.28
2019-02-14T14:15:57.260Z,102142.87
2019-02-14T14:19:06.383Z,102145.84
2019-02-14T14:22:06.829Z,102149.38
2019-02-14T14:25:10.839Z,102148.12
2019-02-14T14:28:14.902Z,102148.89
2019-02-14T14:31:18.715Z,102151.09
2019-02-14T14:34:22.511Z,102154.34
2019-02-14T14:37:26.013Z,102139.89
2019-02-14T14:40:29.524Z,102139.08
2019-02-14T14:43:46.370Z,102138.77
2019-02-14T14:47:02.111Z,102138.83
2019-02-14T14:50:06.124Z,102134.97
2019-02-14T14:53:09.818Z,102128.85
2019-02-14T14:56:13.424Z,102131.25
2019-02-14T14:59:16.970Z,102129.53
2019-02-14T15:02:20.454Z,102123.73
2019-02-14T15:05:25.074Z,102127.88
2019-02-14T15:08:28.677Z,102130.61
2019-02-14T15:11:32.168Z,102129.80
2019-02-14T15:14:35.657Z,102121.05
2019-02-14T15:17:39.173Z,102123.84
2019-02-14T15:20:42.699Z,102126.56
2019-02-14T15:23:46.219Z,102118.66
2019-02-14T15:26:49.879Z,102120.89
2019-02-14T15:29:53.378Z,102118.66
2019-02-14T15:32:56.890Z,102113.34
2019-02-14T15:36:01.442Z,102107.61
2019-02-14T15:39:05.931Z,102108.03
2019-02-14T15:42:09.434Z,102099.19
2019-02-14T15:45:13.180Z,102096.08
2019-02-14T15:48:17.670Z,102101.91
2019-02-14T15:51:21.178Z,102094.49
2019-02-14T15:54:26.712Z,102096.34
2019-02-14T15:57:30.209Z,102095.08
2019-02-14T16:00:36.592Z,102093.78
2019-02-14T16:03:40.635Z,102096.92
2019-02-14T16:06:45.418Z,102099.64
2019-02-14T16:09:49.008Z,102092.58
2019-02-14T16:12:52.473Z,102095.79
2019-02-14T16:15:58.622Z,102099.34
2019-02-14T16:19:01.266Z,102100.68
2019-02-14T16:22:05.877Z,102098.64
2019-02-14T16:25:09.492Z,102098.19
2019-02-14T16:28:13.743Z,102092.45
2019-02-14T16:31:17.325Z,102100.03
2019-02-14T16:34:20.846Z,102098.31
2019-02-14T16:37:24.362Z,102095.72
2019-02-14T16:40:36.419Z,102094.84
2019-02-14T16:43:33.175Z,102094.45
2019-02-14T16:46:36.685Z,102096.69
2019-02-14T16:49:40.167Z,102097.63
2019-02-14T16:52:43.693Z,102093.27
2019-02-14T16:55:47.241Z,102093.78
2019-02-14T16:58:50.892Z,102093.32
2019-02-14T17:01:54.499Z,102093.39
2019-02-14T17:04:57.954Z,102096.98
2019-02-14T17:08:01.908Z,102105.72
2019-02-14T17:11:05.513Z,102107.48
2019-02-14T17:14:10.129Z,102106.92
2019-02-14T17:17:13.745Z,102109.06
2019-02-14T17:20:17.228Z,102115.16
2019-02-14T17:23:20.762Z,102117.42
2019-02-14T17:26:24.223Z,102124.87
2019-02-14T17:29:27.746Z,102124.87
2019-02-14T17:32:31.247Z,102129.24
2019-02-14T17:35:34.778Z,102130.12
2019-02-14T17:38:38.290Z,102129.63
2019-02-14T17:41:41.728Z,102128.30
2019-02-14T17:44:45.347Z,102130.95
2019-02-14T17:47:48.943Z,102126.97
2019-02-14T17:50:52.458Z,102134.55
2019-02-14T17:53:56.007Z,102127.52
2019-02-14T17:56:59.652Z,102123.55
2019-02-14T18:00:03.229Z,102131.51
2019-02-14T18:03:06.859Z,102135.36
2019-02-14T18:06:10.333Z,102137.20
2019-02-14T18:09:13.864Z,102138.92
2019-02-14T18:12:17.356Z,102142.52
2019-02-14T18:15:21.891Z,102143.84
2019-02-14T18:18:26.406Z,102142.52
2019-02-14T18:21:29.927Z,102143.45
2019-02-14T18:24:33.412Z,102137.20
2019-02-14T18:27:36.919Z,102139.47
2019-02-14T18:30:40.456Z,102135.94
2019-02-14T18:33:44.142Z,102140.86
2019-02-14T18:36:47.695Z,102140.38
2019-02-14T18:39:51.339Z,102147.95
2019-02-14T18:42:54.863Z,102145.30
2019-02-14T18:45:58.334Z,102148.83
2019-02-14T18:49:01.839Z,102144.91
2019-02-14T18:52:05.317Z,102151.00
2019-02-14T18:55:08.875Z,102153.20
2019-02-14T18:58:12.352Z,102143.45
2019-02-14T19:01:15.842Z,102137.27
2019-02-14T19:04:20.371Z,102138.15
2019-02-14T19:07:25.903Z,102137.20
2019-02-14T19:10:29.423Z,102140.73
2019-02-14T19:13:32.974Z,102138.92
2019-02-14T19:16:36.619Z,102137.14
2019-02-14T19:19:42.195Z,102134.03
2019-02-14T19:22:45.662Z,102130.95
2019-02-14T19:25:49.173Z,102128.30
2019-02-14T19:28:52.695Z,102124.32
2019-02-14T19:31:56.175Z,102128.30
2019-02-14T19:34:59.683Z,102126.59
2019-02-14T19:38:03.201Z,102126.52
2019-02-14T19:41:06.828Z,102119.95
2019-02-14T19:44:10.376Z,102118.23
2019-02-14T19:47:14.899Z,102120.40
2019-02-14T19:50:19.434Z,102123.55
2019-02-14T19:53:22.936Z,102131.02
2019-02-14T19:56:26.467Z,102133.74
2019-02-14T19:59:30.086Z,102134.68
2019-02-14T20:02:33.789Z,102131.09
2019-02-14T20:05:37.331Z,102133.35
2019-02-14T20:08:42.923Z,102126.26
2019-02-14T20:11:46.385Z,102124.13
2019-02-14T20:14:51.947Z,102130.70
2019-02-14T20:17:55.457Z,102125.00
2019-02-14T20:20:59.990Z,102124.58
2019-02-14T20:24:03.465Z,102123.25
2019-02-14T20:27:06.976Z,102124.58
2019-02-14T20:30:10.582Z,102112.63
2019-02-14T20:33:14.178Z,102116.22
2019-02-14T20:36:19.863Z,102110.91
2019-02-14T20:39:23.524Z,102114.63
2019-02-14T20:42:27.144Z,102116.47
2019-02-14T20:45:30.691Z,102113.49
2019-02-14T20:48:34.338Z,102112.23
2019-02-14T20:51:38.895Z,102122.84
2019-02-14T20:54:42.368Z,102120.67
2019-02-14T20:57:47.918Z,102119.53
2019-02-14T21:00:51.451Z,102117.82
2019-02-14T21:03:55.042Z,102113.54
2019-02-14T21:06:58.468Z,102117.13
2019-02-14T21:10:02.024Z,102118.06
2019-02-14T21:13:05.645Z,102115.02
2019-02-14T21:16:10.157Z,102117.68
2019-02-14T21:19:15.703Z,102113.82
2019-02-14T21:22:19.224Z,102116.05
2019-02-14T21:25:24.230Z,102116.53
2019-02-14T21:28:27.869Z,102114.33
2019-02-14T21:31:32.381Z,102120.16
2019-02-14T21:34:35.892Z,102118.50
2019-02-14T21:37:39.380Z,102120.70
2019-02-14T21:40:42.891Z,102124.74
2019-02-14T21:43:46.384Z,102129.17
2019-02-14T21:46:49.872Z,102128.39
2019-02-14T21:49:53.409Z,102123.60
2019-02-14T21:52:56.912Z,102123.72
2019-02-14T21:56:01.431Z,102128.64
2019-02-14T21:59:05.935Z,102127.77
2019-02-14T22:02:09.443Z,102127.77
2019-02-14T22:05:12.959Z,102131.41
2019-02-14T22:08:16.394Z,102127.04
2019-02-14T22:11:19.972Z,102140.43
2019-02-14T22:14:23.440Z,102133.73
2019-02-14T22:17:26.941Z,102132.53
2019-02-14T22:20:30.479Z,102136.14
2019-02-14T22:23:33.925Z,102134.81
2019-02-14T22:26:37.431Z,102138.80
2019-02-14T22:29:40.880Z,102142.78
2019-02-14T22:32:44.733Z,102149.41
2019-02-14T22:35:48.351Z,102150.31
2019-02-14T22:38:51.858Z,102148.59
2019-02-14T22:41:55.339Z,102150.41
2019-02-14T22:45:01.217Z,102156.16
2019-02-14T22:48:04.802Z,102154.83
2019-02-14T22:51:08.317Z,102154.44
2019-02-14T22:54:11.808Z,102161.07
2019-02-14T22:57:15.313Z,102161.52
2019-02-14T23:00:32.488Z,102165.62
2019-02-14T23:03:37.055Z,102170.87
2019-02-14T23:06:40.561Z,102174.84
2019-02-14T23:09:44.054Z,102178.01
2019-02-14T23:12:55.416Z,102177.22
2019-02-14T23:15:52.894Z,102183.46
2019-02-14T23:18:57.441Z,102184.79
2019-02-14T23:22:01.333Z,102179.05
2019-02-14T23:25:05.017Z,102176.02
2019-02-14T23:28:08.537Z,102174.74
2019-02-14T23:31:13.063Z,102172.15
2019-02-14T23:34:17.706Z,102176.13
2019-02-14T23:37:21.311Z,102164.31
2019-02-14T23:40:24.806Z,102172.69
2019-02-14T23:43:29.352Z,102173.48
2019-02-14T23:46:32.869Z,102177.52
2019-02-14T23:49:36.326Z,102173.25
2019-02-14T23:52:39.837Z,102173.59
2019-02-14T23:55:43.327Z,102173.20
2019-02-14T23:58:46.849Z,102177.56
